Time;durP1;ratioP1;P1;durP2;ratioP2;P2;SDS_P1;SDS_P2;PMS_P1;PMS_P2;Temp;Humidity;BMP_temperature;BMP_pressure;BME280_temperature;BME280_humidity;BME280_pressure;Samples;Min_cycle;Max_cycle;Signal;HPM_P1;HPM_P2
2021/03/09 00:01:56;;;;;;;7.60;6.50;;;0.40;99.90;;;;;;5031534;28;20232;-83
2021/03/09 00:04:23;;;;;;;9.75;6.70;;;0.20;99.90;;;;;;5017181;28;20231;-83
2021/03/09 00:06:50;;;;;;;13.10;7.15;;;;;;;;;;5017250;28;20218;-84
2021/03/09 00:09:16;;;;;;;10.75;6.25;;;;;;;;;;5017020;28;20730;-84
2021/03/09 00:11:43;;;;;;;8.93;6.97;;;;;;;;;;5017586;28;20281;-83
2021/03/09 00:14:09;;;;;;;7.38;5.75;;;0.10;99.90;;;;;;5015282;28;20287;-83
2021/03/09 00:16:37;;;;;;;9.15;5.90;;;0.20;99.90;;;;;;5016371;28;20298;-83
2021/03/09 00:19:03;;;;;;;11.98;7.43;;;;;;;;;;5015448;28;20283;-84
2021/03/09 00:21:30;;;;;;;11.38;7.00;;;;;;;;;;5016173;28;20266;-84
2021/03/09 00:23:57;;;;;;;7.70;6.07;;;;;;;;;;5016241;28;20326;-84
2021/03/09 00:26:23;;;;;;;11.00;6.05;;;;;;;;;;5015066;28;20291;-84
2021/03/09 00:28:50;;;;;;;14.15;7.18;;;0.10;99.90;;;;;;5016392;28;20294;-84
2021/03/09 00:31:16;;;;;;;12.35;7.20;;;;;;;;;;5014905;28;20208;-84
2021/03/09 00:33:44;;;;;;;12.15;5.97;;;-0.10;99.90;;;;;;5016166;28;20290;-84
2021/03/09 00:36:10;;;;;;;9.35;6.32;;;-0.30;99.90;;;;;;5015836;28;20231;-83
2021/03/09 00:38:37;;;;;;;13.93;5.78;;;-0.20;99.90;;;;;;5016187;28;20203;-84
2021/03/09 00:41:03;;;;;;;8.88;6.93;;;;;;;;;;5015870;28;20322;-84
2021/03/09 00:43:30;;;;;;;11.30;6.30;;;;;;;;;;5016762;28;20258;-84
2021/03/09 00:45:57;;;;;;;12.75;9.32;;;0.00;99.90;;;;;;5016131;28;20629;-84
2021/03/09 00:48:23;;;;;;;7.00;5.55;;;-0.10;99.90;;;;;;5016080;28;20290;-84
2021/03/09 00:50:50;;;;;;;8.70;5.43;;;;;;;;;;5015446;28;20286;-84
2021/03/09 00:53:17;;;;;;;10.23;6.38;;;;;;;;;;5016707;28;20581;-84
2021/03/09 00:55:44;;;;;;;10.70;6.13;;;-0.20;99.90;;;;;;5015814;28;20215;-84
2021/03/09 00:58:10;;;;;;;13.20;7.05;;;-0.10;99.90;;;;;;5015256;28;20709;-84
2021/03/09 01:00:37;;;;;;;10.02;6.30;;;-0.30;99.90;;;;;;5014283;28;20281;-85
2021/03/09 01:03:03;;;;;;;11.98;8.40;;;-0.10;99.90;;;;;;5015084;28;20294;-84
2021/03/09 01:05:30;;;;;;;10.55;6.70;;;;;;;;;;5015031;28;20235;-84
2021/03/09 01:07:58;;;;;;;13.52;6.72;;;;;;;;;;5015096;28;20287;-85
2021/03/09 01:10:24;;;;;;;11.80;4.93;;;;;;;;;;5015351;28;20238;-84
2021/03/09 01:12:51;;;;;;;10.57;6.45;;;;;;;;;;5015116;28;20718;-84
2021/03/09 01:15:18;;;;;;;11.18;5.95;;;;;;;;;;5013900;28;20373;-83
2021/03/09 01:17:45;;;;;;;7.10;5.22;;;;;;;;;;5014865;28;20239;-83
2021/03/09 01:20:12;;;;;;;8.43;5.25;;;-0.60;99.90;;;;;;5014044;28;20782;-83
2021/03/09 01:22:39;;;;;;;7.88;6.30;;;;;;;;;;5015184;28;20234;-83
2021/03/09 01:25:08;;;;;;;10.27;6.35;;;-0.50;99.90;;;;;;5014959;28;20298;-83
2021/03/09 01:27:35;;;;;;;10.20;5.50;;;;;;;;;;5014036;28;20295;-83
2021/03/09 01:30:01;;;;;;;11.70;6.57;;;0.10;99.90;;;;;;5013549;28;20302;-83
2021/03/09 01:32:28;;;;;;;13.07;8.32;;;;;;;;;;5014743;28;20243;-83
2021/03/09 01:34:55;;;;;;;13.98;5.20;;;;;;;;;;5014777;28;20326;-83
2021/03/09 01:37:21;;;;;;;10.00;6.20;;;;;;;;;;5014743;28;20294;-83
2021/03/09 01:39:48;;;;;;;10.95;7.78;;;;;;;;;;5014400;28;20386;-83
2021/03/09 01:42:15;;;;;;;13.07;6.90;;;-0.30;99.90;;;;;;5014276;28;20285;-82
2021/03/09 01:44:42;;;;;;;11.57;7.50;;;;;;;;;;5013571;28;20242;-83
2021/03/09 01:47:09;;;;;;;8.77;7.00;;;;;;;;;;5014510;28;20298;-83
2021/03/09 01:49:38;;;;;;;14.18;7.95;;;-0.30;99.90;;;;;;5014450;28;20656;-83
2021/03/09 01:52:07;;;;;;;14.95;5.60;;;-0.30;99.90;;;;;;5014501;28;20235;-83
2021/03/09 01:54:33;;;;;;;10.77;5.72;;;;;;;;;;5014254;28;20640;-84
2021/03/09 01:57:01;;;;;;;7.63;5.53;;;-0.60;99.90;;;;;;5014102;28;20346;-83
2021/03/09 01:59:29;;;;;;;12.38;7.07;;;-0.50;99.90;;;;;;5013112;28;20250;-84
2021/03/09 02:01:57;;;;;;;10.00;6.82;;;-0.60;99.90;;;;;;5014187;28;20234;-83
2021/03/09 02:04:23;;;;;;;9.98;7.30;;;;;;;;;;5013966;28;20283;-84
2021/03/09 02:06:50;;;;;;;9.02;5.78;;;;;;;;;;5013416;28;20242;-83
2021/03/09 02:09:17;;;;;;;11.65;8.15;;;;;;;;;;5014212;28;20290;-83
2021/03/09 02:11:50;;;;;;;11.10;7.93;;;-0.70;99.90;;;;;;5013971;28;20294;-83
2021/03/09 02:14:21;;;;;;;12.85;9.02;;;-0.80;99.90;;;;;;5012713;28;20246;-83
2021/03/09 02:16:57;;;;;;;15.73;9.40;;;-0.70;99.90;;;;;;5013929;28;20590;-83
2021/03/09 02:20:14;;;;;;;11.52;8.43;;;-0.80;99.90;;;;;;5012808;28;20720;-83
2021/03/09 02:23:06;;;;;;;18.92;9.25;;;-0.90;99.90;;;;;;4972760;28;20255;-83
2021/03/09 02:26:01;;;;;;;8.82;6.93;;;-0.70;99.90;;;;;;4978152;28;20204;-83
2021/03/09 02:28:36;;;;;;;14.38;7.50;;;-0.60;99.90;;;;;;5010281;28;20710;-83
2021/03/09 02:31:05;;;;;;;11.82;8.05;;;-0.60;99.90;;;;;;5012547;28;20215;-84
2021/03/09 02:33:38;;;;;;;17.45;8.75;;;-0.70;99.90;;;;;;5013754;28;20200;-83
2021/03/09 02:36:08;;;;;;;12.68;6.22;;;-0.70;99.90;;;;;;5013335;28;20231;-84
2021/03/09 02:38:39;;;;;;;8.75;6.28;;;-0.90;99.90;;;;;;5013694;28;20294;-83
2021/03/09 02:41:07;;;;;;;13.88;7.35;;;-0.90;99.90;;;;;;5013500;28;20325;-83
2021/03/09 02:43:34;;;;;;;11.82;7.90;;;;;;;;;;5013339;28;20637;-83
2021/03/09 02:46:02;;;;;;;12.38;6.63;;;-1.00;99.90;;;;;;5012181;28;20325;-84
2021/03/09 02:48:30;;;;;;;11.68;5.20;;;-0.90;99.90;;;;;;5013515;28;20231;-84
2021/03/09 02:50:59;;;;;;;8.25;6.60;;;-0.90;99.90;;;;;;5012478;28;20607;-85
2021/03/09 02:53:31;;;;;;;11.10;6.40;;;-1.00;99.90;;;;;;5013501;28;20267;-84
2021/03/09 02:56:01;;;;;;;9.05;5.95;;;-1.00;99.90;;;;;;5013231;28;20627;-84
2021/03/09 02:58:30;;;;;;;13.27;6.68;;;;;;;;;;5013528;28;20291;-84
2021/03/09 03:00:58;;;;;;;13.15;7.43;;;-1.00;99.90;;;;;;5011853;28;20761;-84
2021/03/09 03:03:26;;;;;;;13.02;8.50;;;-1.00;99.90;;;;;;5012984;28;20294;-84
2021/03/09 03:05:58;;;;;;;8.52;6.65;;;-1.00;99.90;;;;;;5012626;28;20203;-84
2021/03/09 03:08:25;;;;;;;11.85;6.05;;;;;;;;;;5013117;28;20207;-85
2021/03/09 03:10:53;;;;;;;8.38;7.13;;;-1.10;99.90;;;;;;5013194;28;20286;-84
2021/03/09 03:13:20;;;;;;;12.25;7.53;;;;;;;;;;5013010;28;20296;-84
2021/03/09 03:15:49;;;;;;;10.00;6.07;;;;;;;;;;5011596;28;20297;-82
2021/03/09 03:18:16;;;;;;;7.45;5.78;;;;;;;;;;5011931;28;20242;-84
2021/03/09 03:20:43;;;;;;;11.48;7.03;;;;;;;;;;5012879;28;20329;-84
2021/03/09 03:23:12;;;;;;;13.40;6.10;;;-1.10;99.90;;;;;;5012959;28;20319;-84
2021/03/09 03:25:38;;;;;;;10.02;6.68;;;;;;;;;;5012939;28;20291;-84
2021/03/09 03:28:08;;;;;;;12.13;7.10;;;-1.10;99.90;;;;;;5011874;28;20290;-84
2021/03/09 03:30:35;;;;;;;16.73;7.28;;;;;;;;;;5011532;28;20211;-82
2021/03/09 03:33:02;;;;;;;8.75;6.30;;;;;;;;;;5012905;28;20298;-82
2021/03/09 03:35:29;;;;;;;9.20;6.38;;;-1.20;99.90;;;;;;5012741;28;20322;-82
2021/03/09 03:37:56;;;;;;;10.95;5.95;;;;;;;;;;5012787;28;20239;-84
2021/03/09 03:40:24;;;;;;;11.15;6.25;;;-1.10;99.90;;;;;;5012782;28;20314;-84
2021/03/09 03:42:51;;;;;;;11.60;7.07;;;;;;;;;;5012554;28;20299;-84
2021/03/09 03:45:20;;;;;;;10.75;6.50;;;-1.30;99.90;;;;;;5011846;28;20347;-85
2021/03/09 03:47:47;;;;;;;11.15;7.82;;;-1.30;99.90;;;;;;5012932;28;20298;-85
2021/03/09 03:50:16;;;;;;;15.40;6.75;;;-1.40;99.90;;;;;;5011924;28;20295;-81
2021/03/09 03:52:52;;;;;;;10.50;6.22;;;-1.40;99.90;;;;;;5014600;28;20203;-81
2021/03/09 03:55:33;;;;;;;8.57;6.22;;;-1.40;99.90;;;;;;5014097;28;20295;-81
2021/03/09 03:58:09;;;;;;;14.27;9.05;;;-1.40;99.90;;;;;;5013546;28;20639;-83
2021/03/09 04:00:36;;;;;;;10.52;7.18;;;;;;;;;;5019110;28;20246;-83
2021/03/09 04:03:03;;;;;;;11.90;7.30;;;;;;;;;;5034604;28;20187;-83
2021/03/09 04:05:30;;;;;;;12.25;6.47;;;;;;;;;;5026138;28;20298;-83
2021/03/09 04:07:57;;;;;;;7.15;6.35;;;;;;;;;;5015105;28;20238;-83
2021/03/09 04:10:25;;;;;;;11.13;7.60;;;-1.30;99.90;;;;;;5035891;28;20191;-83
2021/03/09 04:12:53;;;;;;;13.23;6.22;;;-1.30;99.90;;;;;;5036911;28;20188;-83
2021/03/09 04:15:21;;;;;;;10.05;6.18;;;-1.30;99.90;;;;;;5029668;28;20208;-82
2021/03/09 04:17:49;;;;;;;14.63;7.18;;;-1.30;99.90;;;;;;5014786;28;20295;-83
2021/03/09 04:20:16;;;;;;;11.35;5.00;;;;;;;;;;4997778;28;20766;-83
2021/03/09 04:22:43;;;;;;;8.82;6.30;;;;;;;;;;4992931;28;20291;-83
2021/03/09 04:25:10;;;;;;;10.82;6.13;;;;;;;;;;4993148;28;20236;-84
2021/03/09 04:27:38;;;;;;;10.00;7.00;;;-1.30;99.90;;;;;;5001815;28;20296;-81
2021/03/09 04:30:06;;;;;;;9.77;5.28;;;;;;;;;;5012679;28;20624;-81
2021/03/09 04:32:33;;;;;;;10.10;6.30;;;;;;;;;;5015964;28;20632;-82
2021/03/09 04:35:00;;;;;;;8.40;6.25;;;;;;;;;;5015894;28;20262;-81
2021/03/09 04:37:27;;;;;;;12.52;5.57;;;;;;;;;;5015865;28;20751;-81
2021/03/09 04:39:54;;;;;;;11.43;5.70;;;;;;;;;;5016015;28;20765;-83
2021/03/09 04:42:20;;;;;;;9.75;6.43;;;;;;;;;;5015683;28;20286;-83
2021/03/09 04:44:47;;;;;;;11.88;6.65;;;;;;;;;;5014760;28;20238;-83
2021/03/09 04:47:14;;;;;;;9.27;6.63;;;;;;;;;;5016036;28;20290;-84
2021/03/09 04:49:41;;;;;;;13.30;6.55;;;;;;;;;;5014873;28;20227;-83
2021/03/09 04:52:08;;;;;;;9.32;5.22;;;;;;;;;;5015594;28;20723;-83
2021/03/09 04:54:35;;;;;;;12.40;6.47;;;-1.50;99.90;;;;;;5015581;28;20211;-84
2021/03/09 04:57:02;;;;;;;10.57;7.05;;;;;;;;;;5015927;28;20299;-83
2021/03/09 04:59:29;;;;;;;9.00;5.13;;;;;;;;;;5014292;28;20734;-83
2021/03/09 05:01:55;;;;;;;13.05;7.05;;;;;;;;;;5014908;28;20274;-84
2021/03/09 05:04:23;;;;;;;11.52;8.30;;;;;;;;;;5015080;28;20247;-84
2021/03/09 05:06:50;;;;;;;8.82;7.43;;;;;;;;;;5015569;28;20697;-83
2021/03/09 05:09:16;;;;;;;9.60;6.55;;;;;;;;;;5015519;28;20623;-83
2021/03/09 05:11:43;;;;;;;12.23;6.55;;;;;;;;;;5015249;28;20211;-84
2021/03/09 05:14:10;;;;;;;8.57;5.60;;;;;;;;;;5013922;28;20250;-83
2021/03/09 05:16:36;;;;;;;7.22;5.03;;;;;;;;;;5014696;28;20288;-83
2021/03/09 05:19:03;;;;;;;5.50;4.75;;;;;;;;;;5014845;28;20297;-84
2021/03/09 05:21:31;;;;;;;9.40;6.60;;;;;;;;;;5014960;28;20267;-83
2021/03/09 05:23:57;;;;;;;13.90;6.18;;;;;;;;;;5020377;28;20287;-84
2021/03/09 05:26:24;;;;;;;18.90;7.88;;;;;;;;;;5015096;28;20371;-84
2021/03/09 05:28:51;;;;;;;16.60;6.60;;;;;;;;;;5013905;28;20211;-84
2021/03/09 05:31:17;;;;;;;10.77;6.85;;;;;;;;;;5013788;28;20286;-84
2021/03/09 05:33:44;;;;;;;9.57;5.80;;;;;;;;;;5014794;28;20290;-84
2021/03/09 05:36:11;;;;;;;11.63;6.38;;;;;;;;;;5014604;28;20318;-84
2021/03/09 05:38:38;;;;;;;10.45;7.43;;;;;;;;;;5014798;28;20286;-83
2021/03/09 05:41:05;;;;;;;15.25;8.02;;;;;;;;;;5013805;28;20318;-84
2021/03/09 05:43:32;;;;;;;12.60;6.65;;;;;;;;;;5013385;28;20338;-84
2021/03/09 05:45:59;;;;;;;14.45;7.53;;;;;;;;;;5013360;28;20254;-83
2021/03/09 05:48:25;;;;;;;9.75;6.40;;;;;;;;;;5013767;28;20283;-84
2021/03/09 05:50:55;;;;;;;14.80;8.80;;;;;;;;;;5014285;28;20302;-84
2021/03/09 05:53:22;;;;;;;8.77;7.22;;;;;;;;;;5014535;28;20619;-84
2021/03/09 05:55:50;;;;;;;10.80;7.03;;;;;;;;;;5014294;28;20754;-85
2021/03/09 05:58:17;;;;;;;12.48;7.32;;;;;;;;;;5014576;28;20211;-85
2021/03/09 06:00:44;;;;;;;10.48;7.60;;;;;;;;;;5012974;28;20616;-85
2021/03/09 06:03:10;;;;;;;13.15;6.32;;;;;;;;;;5014199;28;20291;-85
2021/03/09 06:05:37;;;;;;;12.18;6.22;;;;;;;;;;5013260;28;20290;-85
2021/03/09 06:08:04;;;;;;;10.57;6.25;;;;;;;;;;5014295;28;20406;-85
2021/03/09 06:10:31;;;;;;;9.82;6.55;;;;;;;;;;5014003;28;20294;-85
2021/03/09 06:12:58;;;;;;;12.15;6.43;;;;;;;;;;5013938;28;20210;-86
2021/03/09 06:15:25;;;;;;;9.27;6.63;;;;;;;;;;5012702;28;20294;-84
2021/03/09 06:17:55;;;;;;;14.45;7.60;;;;;;;;;;5013053;28;20245;-84
2021/03/09 06:20:23;;;;;;;12.45;7.75;;;;;;;;;;5013815;28;20306;-84
2021/03/09 06:22:51;;;;;;;19.35;9.30;;;-0.70;99.90;;;;;;5014130;28;20239;-85
2021/03/09 06:25:18;;;;;;;9.27;6.65;;;-0.60;99.90;;;;;;5013866;28;20204;-84
2021/03/09 06:27:45;;;;;;;16.73;8.00;;;;;;;;;;5013788;28;20245;-85
2021/03/09 06:30:15;;;;;;;12.18;7.53;;;-0.40;99.90;;;;;;5012019;28;20254;-84
2021/03/09 06:32:43;;;;;;;12.90;9.25;;;;;;;;;;5013817;28;20238;-83
2021/03/09 06:35:32;;;;;;;12.48;8.15;;;-0.40;99.90;;;;;;5013468;28;20327;-84
2021/03/09 06:38:17;;;;;;;10.30;6.25;;;;;;;;;;5013685;28;20243;-83
2021/03/09 06:40:44;;;;;;;13.63;8.30;;;;;;;;;;5013616;28;20703;-84
2021/03/09 06:43:15;;;;;;;16.73;10.45;;;;;;;;;;5013670;28;20291;-84
2021/03/09 06:45:42;;;;;;;17.05;9.05;;;;;;;;;;5012386;28;20290;-83
2021/03/09 06:48:19;;;;;;;16.98;8.25;;;;;;;;;;5012561;28;20302;-84
2021/03/09 06:50:46;;;;;;;17.38;7.97;;;;;;;;;;5013393;28;20602;-84
2021/03/09 06:53:14;;;;;;;12.80;8.55;;;;;;;;;;5013601;28;20208;-84
2021/03/09 06:55:41;;;;;;;13.05;9.20;;;;;;;;;;5013587;28;20283;-85
2021/03/09 06:58:10;;;;;;;16.00;8.10;;;-0.50;99.90;;;;;;5013476;28;20290;-84
2021/03/09 07:00:37;;;;;;;16.02;10.63;;;;;;;;;;5012209;28;20231;-84
2021/03/09 07:03:05;;;;;;;18.80;8.05;;;;;;;;;;5013523;28;20277;-85
2021/03/09 07:05:34;;;;;;;12.45;8.93;;;;;;;;;;5012982;28;20298;-84
2021/03/09 07:08:01;;;;;;;10.77;8.10;;;0.30;99.90;;;;;;5013229;28;20290;-84
2021/03/09 07:10:30;;;;;;;12.05;8.48;;;;;;;;;;5013150;28;20292;-84
2021/03/09 07:12:57;;;;;;;11.35;7.47;;;0.60;99.90;;;;;;5013234;28;20207;-84
2021/03/09 07:15:24;;;;;;;19.20;10.15;;;;;;;;;;5011998;28;20235;-85
2021/03/09 07:17:51;;;;;;;12.27;9.07;;;;;;;;;;5012396;28;20634;-85
2021/03/09 07:20:19;;;;;;;13.20;8.80;;;;;;;;;;5012501;28;20227;-85
2021/03/09 07:22:46;;;;;;;19.33;9.57;;;0.80;99.90;;;;;;5012978;28;20235;-84
2021/03/09 07:25:14;;;;;;;12.32;9.18;;;1.30;99.90;;;;;;5012712;28;20382;-85
2021/03/09 07:27:46;;;;;;;15.23;8.85;;;1.10;99.90;;;;;;5012916;28;20260;-82
2021/03/09 07:30:15;;;;;;;15.88;9.43;;;1.10;99.90;;;;;;5011069;28;20302;-82
2021/03/09 07:32:46;;;;;;;11.15;7.72;;;1.30;99.90;;;;;;5012756;28;20257;-83
2021/03/09 07:35:13;;;;;;;16.60;7.70;;;;;;;;;;5012986;28;20695;-82
2021/03/09 07:37:42;;;;;;;14.68;7.35;;;1.30;99.90;;;;;;5012948;28;20290;-84
2021/03/09 07:40:11;;;;;;;14.18;9.00;;;1.50;99.90;;;;;;5012840;28;20204;-82
2021/03/09 07:42:38;;;;;;;11.25;7.30;;;;;;;;;;5012890;28;20290;-82
2021/03/09 07:45:09;;;;;;;13.00;8.35;;;1.70;99.90;;;;;;5011354;28;20719;-83
2021/03/09 07:47:36;;;;;;;9.80;8.80;;;;;;;;;;5012811;28;20246;-83
2021/03/09 07:50:03;;;;;;;13.02;8.30;;;;;;;;;;5012466;28;20295;-83
2021/03/09 07:52:29;;;;;;;19.10;10.45;;;;;;;;;;5012531;28;20290;-81
2021/03/09 07:55:19;;;;;;;11.57;8.45;;;;;;;;;;5011861;28;20235;-83
2021/03/09 07:57:46;;;;;;;15.57;9.85;;;;;;;;;;5011815;28;20203;-82
2021/03/09 08:00:13;;;;;;;16.20;8.95;;;;;;;;;;5011211;28;20232;-83
2021/03/09 08:02:41;;;;;;;19.67;10.57;;;;;;;;;;5012854;28;20208;-83
2021/03/09 08:05:08;;;;;;;14.95;8.90;;;;;;;;;;5014186;28;20655;-84
2021/03/09 08:07:56;;;;;;;15.80;10.70;;;2.70;99.90;;;;;;5015931;28;20207;-85
2021/03/09 08:10:38;;;;;;;16.08;10.30;;;;;;;;;;5027910;28;20443;-81
2021/03/09 08:13:25;;;;;;;23.05;9.80;;;3.20;99.90;;;;;;5027206;28;20299;-80
2021/03/09 08:15:52;;;;;;;13.43;9.65;;;;;;;;;;5017390;28;20230;-82
2021/03/09 08:18:41;;;;;;;17.25;9.65;;;;;;;;;;5015823;28;20235;-81
2021/03/09 08:21:07;;;;;;;12.05;8.85;;;2.60;99.90;;;;;;5024228;28;20286;-78
2021/03/09 08:23:55;;;;;;;16.60;8.73;;;2.90;99.90;;;;;;5036396;28;20570;-81
2021/03/09 08:26:50;;;;;;;16.80;9.95;;;2.80;99.90;;;;;;5035910;28;20659;-83
2021/03/09 08:29:37;;;;;;;16.52;11.13;;;2.90;99.90;;;;;;5018904;28;20235;-87
2021/03/09 08:32:31;;;;;;;13.82;9.77;;;2.90;99.90;;;;;;5019978;28;20199;-87
2021/03/09 08:35:34;;;;;;;14.88;9.68;;;3.00;99.90;;;;;;5015936;28;20322;-86
2021/03/09 08:38:11;;;;;;;15.43;9.35;;;;;;;;;;5016082;28;20253;-84
2021/03/09 08:41:07;;;;;;;14.15;8.85;;;3.50;99.90;;;;;;5016002;28;20258;-82
2021/03/09 08:43:35;;;;;;;12.40;9.07;;;3.60;99.90;;;;;;5015733;28;20199;-83
2021/03/09 08:46:04;;;;;;;18.77;11.50;;;3.70;99.90;;;;;;5014880;28;20204;-88
2021/03/09 08:48:44;;;;;;;13.30;8.50;;;;;;;;;;5015751;28;20370;-85
2021/03/09 08:51:39;;;;;;;16.10;9.50;;;4.20;99.90;;;;;;5014849;28;20286;-84
2021/03/09 08:54:26;;;;;;;11.05;8.63;;;4.50;99.90;;;;;;5015845;28;20203;-83
2021/03/09 08:56:53;;;;;;;17.85;9.55;;;;;;;;;;5015805;28;20215;-83
2021/03/09 08:59:25;;;;;;;13.95;10.40;;;4.60;99.90;;;;;;5014407;28;20290;-84
2021/03/09 09:01:53;;;;;;;15.13;9.70;;;4.80;99.90;;;;;;5015545;28;20322;-84
2021/03/09 09:04:21;;;;;;;18.48;10.10;;;4.70;99.90;;;;;;5015261;28;20738;-83
2021/03/09 09:06:48;;;;;;;14.88;9.45;;;4.90;99.90;;;;;;5015278;28;20236;-83
2021/03/09 09:09:34;;;;;;;18.08;11.70;;;4.70;99.90;;;;;;5015164;28;20204;-83
2021/03/09 09:12:23;;;;;;;16.75;11.27;;;4.90;99.90;;;;;;5014629;28;20600;-85
2021/03/09 09:15:01;;;;;;;13.13;9.68;;;;;;;;;;5011428;28;20208;-84
2021/03/09 09:17:27;;;;;;;15.00;10.10;;;;;;;;;;5014533;28;20266;-83
2021/03/09 09:19:57;;;;;;;14.70;10.07;;;;;;;;;;5014547;28;20214;-85
2021/03/09 09:22:25;;;;;;;15.00;9.90;;;;;;;;;;5014963;28;20318;-84
2021/03/09 09:24:56;;;;;;;18.10;10.80;;;5.80;99.90;;;;;;5012115;28;20200;-84
2021/03/09 09:27:23;;;;;;;14.55;9.82;;;5.70;99.90;;;;;;5014961;28;20210;-83
2021/03/09 09:29:54;;;;;;;17.60;11.95;;;5.90;99.90;;;;;;4994169;28;20210;-84
2021/03/09 09:32:21;;;;;;;15.82;11.20;;;5.20;99.90;;;;;;5014916;28;20212;-84
2021/03/09 09:34:56;;;;;;;15.60;10.60;;;5.90;99.90;;;;;;5014615;28;20235;-83
2021/03/09 09:37:22;;;;;;;15.43;11.13;;;5.80;99.90;;;;;;5014611;28;20528;-81
2021/03/09 09:39:49;;;;;;;14.50;10.50;;;5.50;99.90;;;;;;5011087;28;20581;-81
2021/03/09 09:42:17;;;;;;;19.87;10.83;;;6.10;99.70;;;;;;5014214;28;20589;-83
2021/03/09 09:44:45;;;;;;;14.50;10.00;;;6.10;99.90;;;;;;5012595;28;21104;-83
2021/03/09 09:47:14;;;;;;;15.23;9.97;;;6.10;99.90;;;;;;5014182;28;20990;-82
2021/03/09 09:49:45;;;;;;;12.73;10.00;;;6.20;99.90;;;;;;5012925;28;20557;-84
2021/03/09 09:52:13;;;;;;;17.83;11.63;;;6.30;99.80;;;;;;5013912;28;20859;-83
2021/03/09 09:54:40;;;;;;;16.80;12.10;;;6.30;99.50;;;;;;5013887;28;20451;-82
2021/03/09 09:57:08;;;;;;;14.20;10.77;;;6.40;99.50;;;;;;5013892;28;20545;-81
2021/03/09 09:59:35;;;;;;;18.60;12.10;;;6.50;99.60;;;;;;5012399;28;20545;-82
2021/03/09 10:02:16;;;;;;;17.00;11.20;;;6.50;99.00;;;;;;5013550;28;20526;-81
2021/03/09 10:04:44;;;;;;;15.33;9.93;;;6.80;99.10;;;;;;5013178;28;20556;-82
2021/03/09 10:07:18;;;;;;;13.67;9.80;;;6.90;98.80;;;;;;5013780;28;20541;-80
2021/03/09 10:10:07;;;;;;;19.40;10.80;;;7.00;98.00;;;;;;5013557;28;20941;-82
2021/03/09 10:12:38;;;;;;;15.17;10.67;;;6.90;98.50;;;;;;4995003;28;21393;-81
2021/03/09 10:15:07;;;;;;;12.30;10.67;;;7.10;98.30;;;;;;5012213;28;20534;-82
2021/03/09 10:17:34;;;;;;;16.43;11.63;;;7.20;98.10;;;;;;5013504;28;20603;-83
2021/03/09 10:20:02;;;;;;;16.00;10.80;;;7.30;97.70;;;;;;5012471;28;20557;-81
2021/03/09 10:22:29;;;;;;;18.23;10.80;;;7.10;97.60;;;;;;5013160;28;20617;-81
2021/03/09 10:25:08;;;;;;;16.17;11.40;;;6.90;98.10;;;;;;5013205;28;20550;-82
2021/03/09 10:27:35;;;;;;;16.20;10.90;;;7.20;98.60;;;;;;5012588;28;20957;-82
2021/03/09 10:30:04;;;;;;;16.13;11.30;;;7.20;97.30;;;;;;5010829;28;20549;-79
2021/03/09 10:32:30;;;;;;;15.53;10.00;;;7.30;97.50;;;;;;5013154;28;20502;-79
2021/03/09 10:35:05;;;;;;;13.40;10.70;;;7.40;97.10;;;;;;5012687;28;20573;-82
2021/03/09 10:37:39;;;;;;;17.77;12.07;;;7.50;96.80;;;;;;5013135;28;20538;-82
2021/03/09 10:40:08;;;;;;;16.90;11.77;;;7.80;96.90;;;;;;5013073;28;20945;-80
2021/03/09 10:42:36;;;;;;;17.73;10.90;;;7.90;96.50;;;;;;5012828;28;20541;-82
2021/03/09 10:45:19;;;;;;;13.43;9.73;;;7.80;96.30;;;;;;5011790;28;20538;-81
2021/03/09 10:47:49;;;;;;;18.40;11.53;;;7.80;96.30;;;;;;5013033;28;20533;-81
2021/03/09 10:50:16;;;;;;;12.83;9.80;;;7.90;96.30;;;;;;5011628;28;20466;-80
2021/03/09 10:52:44;;;;;;;15.77;11.27;;;8.10;95.60;;;;;;5012801;28;20533;-83
2021/03/09 10:55:11;;;;;;;14.87;10.23;;;8.10;95.00;;;;;;5012806;28;20537;-82
2021/03/09 10:57:37;;;;;;;13.63;10.97;;;8.20;95.40;;;;;;4971550;28;20455;-82
2021/03/09 11:00:06;;;;;;;10.83;9.70;;;8.00;94.60;;;;;;4950617;29;20532;-79
2021/03/09 11:02:32;;;;;;;12.17;9.27;;;8.10;94.60;;;;;;4952059;29;21100;-82
2021/03/09 11:04:59;;;;;;;16.13;11.87;;;8.10;94.50;;;;;;4951724;29;20544;-81
2021/03/09 11:07:25;;;;;;;13.60;9.70;;;8.40;94.50;;;;;;4951835;29;20477;-80
2021/03/09 11:09:53;;;;;;;9.57;7.87;;;8.40;94.20;;;;;;4952086;29;20489;-81
2021/03/09 11:12:19;;;;;;;12.40;8.93;;;8.30;92.80;;;;;;4951922;29;20898;-81
2021/03/09 11:14:45;;;;;;;10.90;7.90;;;8.60;92.60;;;;;;4956203;28;20548;-80
2021/03/09 11:17:12;;;;;;;14.60;8.80;;;8.80;93.20;;;;;;5010357;28;20446;-79
2021/03/09 11:19:38;;;;;;;10.30;6.87;;;8.60;93.60;;;;;;5008914;28;20553;-84
2021/03/09 11:22:05;;;;;;;9.17;6.80;;;8.50;91.70;;;;;;5009987;28;20528;-83
2021/03/09 11:24:31;;;;;;;12.47;7.97;;;8.20;91.50;;;;;;5002512;28;20487;-81
2021/03/09 11:27:00;;;;;;;12.80;7.57;;;8.40;92.00;;;;;;4993124;28;20460;-81
2021/03/09 11:29:27;;;;;;;9.43;7.53;;;8.60;91.50;;;;;;4992396;28;20459;-81
2021/03/09 11:31:54;;;;;;;12.27;7.70;;;8.40;91.10;;;;;;5010824;28;20472;-76
2021/03/09 11:34:20;;;;;;;9.73;7.50;;;8.60;90.80;;;;;;5013573;28;20553;-80
2021/03/09 11:36:47;;;;;;;11.50;8.00;;;9.00;90.10;;;;;;5012702;28;20581;-79
2021/03/09 11:39:13;;;;;;;10.40;7.00;;;8.90;91.60;;;;;;5012774;28;20478;-80
2021/03/09 11:41:40;;;;;;;8.30;5.57;;;8.60;91.70;;;;;;5016784;28;21028;-80
2021/03/09 11:44:09;;;;;;;6.87;5.40;;;8.60;90.70;;;;;;5011804;28;20461;-81
2021/03/09 11:46:38;;;;;;;7.33;5.90;;;8.70;90.10;;;;;;5014573;28;20455;-81
2021/03/09 11:49:04;;;;;;;8.00;5.53;;;9.00;89.80;;;;;;4997296;28;20470;-81
2021/03/09 11:51:31;;;;;;;9.67;7.47;;;9.20;89.80;;;;;;5016675;28;20455;-78
2021/03/09 11:53:58;;;;;;;9.90;7.17;;;9.30;90.10;;;;;;5016481;28;20501;-78
2021/03/09 11:56:24;;;;;;;10.30;6.43;;;9.30;89.40;;;;;;5016218;28;20856;-79
2021/03/09 11:58:50;;;;;;;8.90;5.90;;;9.40;87.60;;;;;;5016611;28;20537;-78
2021/03/09 12:01:19;;;;;;;7.47;6.00;;;9.20;88.90;;;;;;5015129;28;20543;-78
2021/03/09 12:03:46;;;;;;;5.27;4.57;;;9.20;89.20;;;;;;5015642;28;20454;-78
2021/03/09 12:06:12;;;;;;;5.80;4.50;;;9.40;85.30;;;;;;5016487;28;20468;-78
2021/03/09 12:08:39;;;;;;;5.73;4.73;;;9.40;84.30;;;;;;5016529;28;20485;-79
2021/03/09 12:11:05;;;;;;;6.73;4.83;;;9.20;84.60;;;;;;5016181;28;20541;-79
2021/03/09 12:13:31;;;;;;;9.03;6.57;;;9.80;84.00;;;;;;5016106;28;20469;-80
2021/03/09 12:15:59;;;;;;;7.90;5.87;;;10.00;81.50;;;;;;5015415;28;20479;-83
2021/03/09 12:18:26;;;;;;;6.67;5.93;;;10.20;80.50;;;;;;5030994;28;20586;-82
2021/03/09 12:20:52;;;;;;;6.50;5.70;;;10.00;80.70;;;;;;5037199;28;20516;-82
2021/03/09 12:23:19;;;;;;;8.30;6.10;;;9.90;83.00;;;;;;5023145;28;20492;-81
2021/03/09 12:25:45;;;;;;;6.67;5.40;;;9.70;83.80;;;;;;5025995;28;20454;-82
2021/03/09 12:28:11;;;;;;;7.40;6.37;;;9.20;85.20;;;;;;5039322;28;20458;-83
2021/03/09 12:30:38;;;;;;;12.00;6.90;;;9.40;84.80;;;;;;5037529;28;20485;-80
2021/03/09 12:33:07;;;;;;;10.53;6.90;;;9.90;83.50;;;;;;5025354;28;20807;-81
2021/03/09 12:35:38;;;;;;;10.33;6.43;;;9.80;84.50;;;;;;5017281;28;20565;-82
2021/03/09 12:38:04;;;;;;;8.57;6.20;;;9.80;85.00;;;;;;5019556;28;20802;-84
2021/03/09 12:40:31;;;;;;;7.83;6.30;;;9.90;83.90;;;;;;5016828;28;20478;-89
2021/03/09 12:42:58;;;;;;;11.90;7.70;;;10.00;81.00;;;;;;5016945;28;20525;-88
2021/03/09 12:45:24;;;;;;;12.87;8.97;;;9.80;82.70;;;;;;4997998;28;20511;-88
2021/03/09 12:47:51;;;;;;;8.83;6.30;;;9.80;82.90;;;;;;5016489;28;21068;-88
2021/03/09 12:50:20;;;;;;;7.73;5.97;;;9.80;82.50;;;;;;5015531;28;20462;-91
2021/03/09 12:52:47;;;;;;;6.10;5.50;;;9.70;83.30;;;;;;4981723;28;20497;-89
2021/03/09 12:55:14;;;;;;;9.40;7.67;;;9.90;80.80;;;;;;5017677;28;20453;-88
2021/03/09 12:57:41;;;;;;;11.80;7.47;;;9.90;80.50;;;;;;5015924;28;21022;-90
2021/03/09 13:00:10;;;;;;;9.83;6.23;;;10.00;79.20;;;;;;5014765;28;20493;-85
2021/03/09 13:02:36;;;;;;;7.37;6.20;;;10.00;79.60;;;;;;5016105;28;20521;-86
2021/03/09 13:05:04;;;;;;;9.57;6.30;;;9.90;79.80;;;;;;5015937;28;21072;-86
2021/03/09 13:07:31;;;;;;;8.00;6.20;;;9.80;80.40;;;;;;5015815;28;20852;-88
2021/03/09 13:09:58;;;;;;;7.60;5.70;;;9.80;79.60;;;;;;5016576;28;20856;-93
2021/03/09 13:12:24;;;;;;;8.40;6.30;;;9.90;80.90;;;;;;5015843;28;20450;-87
2021/03/09 13:14:51;;;;;;;7.73;6.43;;;9.80;80.30;;;;;;5014759;28;20972;-89
2021/03/09 13:17:17;;;;;;;6.73;5.90;;;9.70;79.90;;;;;;5015715;28;20812;-89
2021/03/09 13:19:44;;;;;;;8.67;5.67;;;9.60;80.50;;;;;;5014816;28;20505;-90
2021/03/09 13:22:10;;;;;;;9.47;6.60;;;9.90;80.20;;;;;;5016388;28;20600;-87
2021/03/09 13:24:37;;;;;;;7.00;4.90;;;9.80;79.90;;;;;;5016414;28;20490;-89
2021/03/09 13:27:04;;;;;;;7.77;6.30;;;9.60;80.10;;;;;;5016300;28;20447;-89
2021/03/09 13:29:30;;;;;;;6.20;4.70;;;9.00;79.70;;;;;;5014116;28;20482;-86
2021/03/09 13:31:57;;;;;;;8.00;6.13;;;8.80;81.40;;;;;;5014254;28;20494;-84
2021/03/09 13:34:23;;;;;;;8.43;5.87;;;8.50;80.90;;;;;;5014317;28;20491;-84
2021/03/09 13:36:49;;;;;;;10.93;6.43;;;9.10;81.80;;;;;;5014598;28;20538;-83